Houghton le Spring, United Kingdom
Current Conditions -  °F | °C
As of 10:50 AM on Sunday 26 Oct 2014 (Local Time) from EGNT Reporting Station
Scattered Clouds Scattered Clouds  
Wind Chill: 61°   Ceiling: Unl
Heat Index: 61°   Visibility: 6mi
Dew Point: 46°   Wind: 18mph
Humidity: 59%   Direction: 240°WSW
Pressure: 29.8"   Gusts: NA
Location:  54.84°N, 1.46°W
Report Text: EGNT 260950Z 24016KT 200V260 9999 SCT035 16/08 Q1009
Loading
Personal Weather Stations






























Interactive Weather Map
Tropical Storm Tracking
New forecast layout! Learn more

10-Day Weather Forecast

Advertisements
Track Severe Weather on mobile